createdAt,value
2017-12-06T00:01:44.063Z,11.75
2017-12-06T00:04:14.120Z,11.07
2017-12-06T00:06:43.120Z,10.02
2017-12-06T00:09:12.153Z,14.48
2017-12-06T00:11:42.528Z,11.12
2017-12-06T00:16:17.725Z,8.57
2017-12-06T00:18:47.473Z,9.20
2017-12-06T00:21:16.728Z,9.30
2017-12-06T00:23:46.634Z,9.38
2017-12-06T00:26:15.735Z,9.50
2017-12-06T00:28:44.713Z,11.38
2017-12-06T00:31:13.719Z,11.88
2017-12-06T00:33:42.732Z,7.43
2017-12-06T00:36:12.661Z,10.85
2017-12-06T00:38:42.322Z,9.60
2017-12-06T00:41:12.256Z,9.88
2017-12-06T00:43:41.159Z,8.50
2017-12-06T00:46:10.898Z,9.52
2017-12-06T00:48:40.201Z,9.18
2017-12-06T00:51:10.245Z,9.45
2017-12-06T00:53:39.184Z,9.93
2017-12-06T00:56:08.979Z,9.20
2017-12-06T00:58:37.861Z,8.93
2017-12-06T01:01:06.774Z,9.25
2017-12-06T01:03:36.529Z,9.35
2017-12-06T01:06:06.823Z,7.72
2017-12-06T01:08:36.670Z,8.25
2017-12-06T01:11:06.482Z,13.75
2017-12-06T01:13:35.477Z,7.15
2017-12-06T01:16:04.436Z,11.10
2017-12-06T01:18:34.205Z,9.32
2017-12-06T01:21:03.972Z,9.13
2017-12-06T01:23:33.617Z,8.38
2017-12-06T01:26:03.415Z,8.80
2017-12-06T01:28:32.483Z,8.38
2017-12-06T01:31:01.674Z,7.43
2017-12-06T01:33:30.676Z,9.73
2017-12-06T01:35:59.577Z,7.90
2017-12-06T01:38:28.481Z,7.62
2017-12-06T01:40:57.351Z,7.62
2017-12-06T01:43:26.379Z,10.57
2017-12-06T01:45:55.262Z,10.35
2017-12-06T01:48:24.227Z,8.90
2017-12-06T01:50:53.243Z,10.23
2017-12-06T01:53:22.115Z,9.07
2017-12-06T01:55:51.150Z,8.73
2017-12-06T01:58:21.177Z,8.57
2017-12-06T02:00:50.324Z,8.75
2017-12-06T02:03:19.432Z,8.45
2017-12-06T02:05:48.443Z,11.02
2017-12-06T02:08:17.903Z,8.70
2017-12-06T02:10:46.923Z,10.15
2017-12-06T02:13:16.009Z,12.70
2017-12-06T02:15:44.906Z,9.25
2017-12-06T02:18:13.934Z,11.63
2017-12-06T02:20:43.970Z,9.25
2017-12-06T02:23:14.512Z,7.60
2017-12-06T02:25:44.547Z,9.32
2017-12-06T02:28:19.073Z,8.52
2017-12-06T02:30:48.267Z,9.73
2017-12-06T02:33:19.588Z,8.43
2017-12-06T02:35:48.979Z,8.45
2017-12-06T02:38:18.755Z,8.60
2017-12-06T02:42:59.454Z,8.90
2017-12-06T02:45:28.619Z,8.43
2017-12-06T02:47:57.540Z,8.40
2017-12-06T02:50:26.808Z,8.65
2017-12-06T02:52:55.790Z,8.35
2017-12-06T02:55:24.918Z,8.30
2017-12-06T02:57:53.895Z,9.05
2017-12-06T03:00:23.197Z,9.98
2017-12-06T03:02:52.130Z,8.77
2017-12-06T03:05:22.200Z,9.98
2017-12-06T03:07:51.164Z,9.00
2017-12-06T03:10:20.281Z,9.50
2017-12-06T03:12:49.219Z,8.85
2017-12-06T03:15:18.159Z,8.75
2017-12-06T03:17:47.051Z,10.43
2017-12-06T03:20:18.143Z,8.55
2017-12-06T03:22:47.047Z,10.07
2017-12-06T03:25:16.096Z,9.57
2017-12-06T03:27:45.039Z,9.18
2017-12-06T03:30:14.300Z,9.68
2017-12-06T03:32:43.479Z,10.07
2017-12-06T03:35:13.382Z,9.85
2017-12-06T03:37:42.275Z,9.90
2017-12-06T03:40:12.000Z,10.57
2017-12-06T03:42:40.900Z,10.90
2017-12-06T03:45:12.082Z,11.98
2017-12-06T03:47:40.974Z,12.23
2017-12-06T03:50:11.416Z,12.85
2017-12-06T03:52:41.162Z,12.52
2017-12-06T03:55:11.446Z,13.75
2017-12-06T03:57:40.335Z,13.27
2017-12-06T04:00:11.407Z,15.15
2017-12-06T04:02:40.286Z,14.07
2017-12-06T04:05:09.332Z,13.25
2017-12-06T04:07:38.819Z,13.70
2017-12-06T04:10:09.619Z,15.38
2017-12-06T04:12:43.545Z,14.98
2017-12-06T04:15:13.812Z,16.67
2017-12-06T04:17:42.746Z,14.15
2017-12-06T04:20:14.143Z,16.40
2017-12-06T04:22:43.517Z,16.90
2017-12-06T04:25:12.767Z,17.08
2017-12-06T04:27:42.467Z,17.23
2017-12-06T04:30:12.584Z,16.02
2017-12-06T04:32:41.604Z,17.05
2017-12-06T04:35:11.154Z,16.98
2017-12-06T04:37:40.248Z,15.55
2017-12-06T04:40:09.475Z,18.00
2017-12-06T04:42:38.351Z,17.90
2017-12-06T04:45:14.064Z,16.40
2017-12-06T04:47:43.071Z,19.40
2017-12-06T04:50:13.073Z,18.35
2017-12-06T04:52:41.960Z,20.65
2017-12-06T04:55:11.660Z,20.00
2017-12-06T04:57:40.578Z,20.30
2017-12-06T05:00:11.724Z,18.95
2017-12-06T05:02:40.614Z,18.75
2017-12-06T05:05:11.020Z,19.98
2017-12-06T05:07:40.149Z,23.50
2017-12-06T05:10:10.108Z,22.52
2017-12-06T05:12:39.776Z,21.50
2017-12-06T05:15:11.826Z,22.83
2017-12-06T05:17:40.734Z,21.17
2017-12-06T05:20:11.903Z,21.52
2017-12-06T05:22:41.853Z,20.00
2017-12-06T05:25:19.025Z,23.85
2017-12-06T05:27:48.888Z,17.90
2017-12-06T05:30:21.029Z,20.90
2017-12-06T05:32:50.072Z,19.73
2017-12-06T05:35:21.464Z,19.48
2017-12-06T05:37:50.649Z,19.98
2017-12-06T05:40:20.568Z,19.40
2017-12-06T05:42:49.525Z,20.27
2017-12-06T05:45:19.499Z,17.80
2017-12-06T05:47:48.446Z,18.92
2017-12-06T05:50:18.421Z,18.27
2017-12-06T05:52:47.566Z,18.95
2017-12-06T05:55:17.274Z,18.67
2017-12-06T05:57:46.916Z,19.35
2017-12-06T06:00:18.688Z,20.55
2017-12-06T06:02:47.625Z,21.25
2017-12-06T06:05:17.737Z,18.52
2017-12-06T06:07:51.203Z,21.08
2017-12-06T06:10:21.100Z,20.48
2017-12-06T06:12:50.035Z,19.05
2017-12-06T06:15:20.194Z,21.92
2017-12-06T06:17:49.738Z,18.45
2017-12-06T06:20:21.355Z,20.33
2017-12-06T06:22:50.280Z,20.40
2017-12-06T06:25:19.356Z,18.80
2017-12-06T06:27:49.233Z,19.98
2017-12-06T06:30:19.051Z,17.90
2017-12-06T06:32:48.025Z,20.60
2017-12-06T06:35:22.802Z,20.08
2017-12-06T06:37:54.629Z,17.77
2017-12-06T06:40:25.299Z,16.83
2017-12-06T06:42:54.293Z,18.52
2017-12-06T06:45:23.999Z,17.02
2017-12-06T06:47:53.671Z,19.30
2017-12-06T06:50:23.940Z,15.85
2017-12-06T06:52:53.802Z,21.50
2017-12-06T06:55:25.534Z,18.50
2017-12-06T06:57:54.531Z,17.73
2017-12-06T07:00:30.079Z,17.67
2017-12-06T07:02:59.006Z,19.33
2017-12-06T07:05:28.181Z,16.52
2017-12-06T07:07:57.911Z,22.42
2017-12-06T07:10:28.835Z,19.00
2017-12-06T07:12:58.657Z,15.88
2017-12-06T07:15:30.280Z,15.52
2017-12-06T07:18:00.143Z,18.45
2017-12-06T07:20:29.946Z,16.98
2017-12-06T07:22:58.903Z,19.98
2017-12-06T07:25:28.039Z,16.15
2017-12-06T07:28:01.027Z,15.40
2017-12-06T07:30:36.024Z,16.37
2017-12-06T07:33:09.382Z,20.95
2017-12-06T07:35:41.400Z,16.67
2017-12-06T07:38:11.598Z,16.00
2017-12-06T07:40:43.114Z,17.90
2017-12-06T07:43:13.654Z,21.90
2017-12-06T07:45:43.945Z,18.62
2017-12-06T07:48:17.832Z,18.65
2017-12-06T07:50:48.050Z,18.50
2017-12-06T07:53:18.045Z,15.13
2017-12-06T07:55:47.287Z,19.35
2017-12-06T07:58:20.644Z,14.35
2017-12-06T08:00:51.833Z,17.40
2017-12-06T08:03:21.909Z,15.60
2017-12-06T08:05:52.720Z,16.23
2017-12-06T08:08:22.503Z,14.18
2017-12-06T08:10:52.642Z,15.35
2017-12-06T08:13:21.654Z,16.15
2017-12-06T08:15:53.340Z,14.05
2017-12-06T08:18:24.085Z,15.15
2017-12-06T08:20:56.462Z,16.50
2017-12-06T08:23:28.114Z,15.25
2017-12-06T08:25:58.368Z,15.48
2017-12-06T08:28:29.278Z,14.80
2017-12-06T08:30:58.681Z,14.93
2017-12-06T08:33:27.848Z,17.42
2017-12-06T08:35:57.949Z,17.75
2017-12-06T08:38:27.695Z,15.25
2017-12-06T08:40:57.779Z,13.07
2017-12-06T08:43:27.819Z,14.65
2017-12-06T08:45:59.186Z,17.30
2017-12-06T08:48:31.139Z,15.45
2017-12-06T08:51:01.704Z,16.25
2017-12-06T08:53:33.041Z,13.85
2017-12-06T08:56:02.231Z,12.90
2017-12-06T08:58:31.616Z,13.18
2017-12-06T09:01:11.182Z,13.52
2017-12-06T09:03:41.666Z,12.40
2017-12-06T09:06:12.977Z,14.52
2017-12-06T09:08:43.140Z,13.32
2017-12-06T09:11:15.168Z,13.70
2017-12-06T09:13:45.278Z,11.50
2017-12-06T09:16:20.334Z,13.15
2017-12-06T09:18:50.534Z,13.13
2017-12-06T09:21:21.452Z,11.90
2017-12-06T09:23:51.409Z,12.43
2017-12-06T09:26:22.474Z,11.20
2017-12-06T09:28:54.481Z,12.23
2017-12-06T09:31:30.390Z,10.70
2017-12-06T09:34:00.777Z,13.45
2017-12-06T09:36:32.578Z,13.45
2017-12-06T09:39:02.903Z,11.77
2017-12-06T09:41:33.599Z,9.48
2017-12-06T09:44:02.863Z,10.43
2017-12-06T09:46:32.692Z,13.20
2017-12-06T09:49:01.699Z,13.07
2017-12-06T09:51:31.800Z,10.98
2017-12-06T09:54:00.803Z,10.32
2017-12-06T09:56:31.517Z,11.20
2017-12-06T09:59:00.512Z,19.60
2017-12-06T10:01:30.209Z,11.18
2017-12-06T10:03:59.943Z,10.07
2017-12-06T10:06:29.941Z,11.88
2017-12-06T10:08:58.926Z,10.60
2017-12-06T10:11:28.303Z,11.45
2017-12-06T10:13:58.909Z,9.55
2017-12-06T10:16:28.002Z,11.63
2017-12-06T10:18:58.293Z,10.07
2017-12-06T10:21:29.485Z,10.88
2017-12-06T10:23:58.601Z,10.52
2017-12-06T10:26:29.887Z,10.55
2017-12-06T10:29:13.925Z,10.10
2017-12-06T10:31:46.669Z,10.50
2017-12-06T10:34:18.284Z,10.77
2017-12-06T10:36:48.911Z,10.32
2017-12-06T10:39:18.947Z,10.43
2017-12-06T10:41:49.180Z,11.32
2017-12-06T10:44:18.255Z,10.93
2017-12-06T10:46:47.200Z,12.63
2017-12-06T10:49:16.702Z,10.93
2017-12-06T10:51:47.995Z,10.52
2017-12-06T10:54:18.071Z,11.50
2017-12-06T10:56:47.203Z,12.20
2017-12-06T10:59:16.914Z,10.73
2017-12-06T11:01:46.738Z,10.07
2017-12-06T11:04:15.933Z,12.30
2017-12-06T11:06:46.020Z,10.88
2017-12-06T11:09:17.074Z,9.48
2017-12-06T11:11:46.984Z,10.55
2017-12-06T11:14:18.049Z,10.55
2017-12-06T11:16:49.504Z,9.90
2017-12-06T11:19:18.658Z,10.05
2017-12-06T11:21:50.096Z,9.68
2017-12-06T11:24:19.669Z,9.73
2017-12-06T11:26:51.749Z,9.65
2017-12-06T11:29:21.668Z,13.23
2017-12-06T11:31:50.728Z,9.05
2017-12-06T11:34:20.812Z,10.45
2017-12-06T11:36:51.572Z,9.48
2017-12-06T11:42:03.162Z,10.73
2017-12-06T11:44:32.339Z,10.27
2017-12-06T11:47:01.319Z,10.23
2017-12-06T11:49:31.113Z,9.27
2017-12-06T11:52:01.638Z,10.40
2017-12-06T11:54:31.722Z,11.10
2017-12-06T11:57:00.997Z,8.73
2017-12-06T11:59:30.117Z,12.70
2017-12-06T12:02:01.590Z,10.20
2017-12-06T12:04:31.832Z,9.80
2017-12-06T12:07:01.072Z,9.00
2017-12-06T12:09:34.943Z,9.07
2017-12-06T12:12:10.596Z,8.98
2017-12-06T12:14:42.602Z,9.57
2017-12-06T12:17:13.749Z,9.32
2017-12-06T12:19:44.282Z,9.43
2017-12-06T12:22:15.915Z,10.43
2017-12-06T12:24:47.902Z,9.27
2017-12-06T12:27:19.778Z,10.82
2017-12-06T12:29:48.781Z,10.32
2017-12-06T12:32:20.366Z,9.32
2017-12-06T12:34:51.321Z,9.73
2017-12-06T12:37:23.170Z,10.27
2017-12-06T12:39:55.004Z,9.18
2017-12-06T12:42:26.428Z,11.30
2017-12-06T12:44:56.426Z,11.05
2017-12-06T12:47:26.227Z,10.18
2017-12-06T12:49:55.406Z,11.27
2017-12-06T12:52:31.363Z,11.07
2017-12-06T12:55:01.537Z,11.05
2017-12-06T13:00:21.413Z,10.07
2017-12-06T13:02:52.183Z,9.48
2017-12-06T13:05:22.582Z,9.70
2017-12-06T13:07:51.996Z,13.73
2017-12-06T13:10:24.633Z,10.00
2017-12-06T13:12:54.502Z,9.15
2017-12-06T13:15:24.554Z,10.05
2017-12-06T13:17:58.429Z,9.85
2017-12-06T13:20:28.630Z,10.30
2017-12-06T13:24:17.257Z,10.20
2017-12-06T13:26:47.798Z,9.50
2017-12-06T13:29:18.165Z,9.45
2017-12-06T13:31:51.037Z,9.25
2017-12-06T13:34:21.260Z,9.07
2017-12-06T13:36:51.980Z,10.63
2017-12-06T13:39:21.726Z,8.98
2017-12-06T13:41:51.733Z,9.35
2017-12-06T13:44:20.937Z,9.40
2017-12-06T13:46:50.894Z,9.50
2017-12-06T13:49:36.664Z,8.50
2017-12-06T13:52:10.916Z,9.85
2017-12-06T13:54:40.545Z,10.80
2017-12-06T13:57:10.027Z,8.05
2017-12-06T13:59:40.724Z,8.82
2017-12-06T14:02:10.769Z,9.13
2017-12-06T14:04:39.890Z,8.98
2017-12-06T14:07:09.647Z,9.68
2017-12-06T14:09:38.897Z,9.90
2017-12-06T14:12:08.418Z,10.18
2017-12-06T14:14:37.660Z,10.65
2017-12-06T14:17:11.916Z,8.57
2017-12-06T14:19:41.315Z,8.20
2017-12-06T14:22:12.227Z,9.32
2017-12-06T14:24:41.770Z,8.20
2017-12-06T14:27:15.726Z,9.25
2017-12-06T14:29:46.364Z,8.85
2017-12-06T14:32:15.715Z,8.30
2017-12-06T14:34:46.669Z,9.73
2017-12-06T14:37:16.755Z,11.80
2017-12-06T14:39:46.523Z,9.77
2017-12-06T14:42:17.128Z,8.82
2017-12-06T14:44:47.065Z,9.90
2017-12-06T14:47:18.587Z,9.13
2017-12-06T14:49:47.771Z,8.48
2017-12-06T14:52:17.086Z,8.93
2017-12-06T14:54:46.439Z,8.82
2017-12-06T14:57:20.190Z,9.52
2017-12-06T14:59:50.127Z,9.10
2017-12-06T15:02:21.161Z,11.05
2017-12-06T15:04:55.172Z,10.07
2017-12-06T15:07:25.428Z,10.50
2017-12-06T15:09:54.510Z,9.13
2017-12-06T15:12:24.101Z,9.40
2017-12-06T15:14:54.009Z,9.63
2017-12-06T15:17:25.159Z,10.02
2017-12-06T15:19:54.196Z,10.70
2017-12-06T15:22:23.435Z,9.55
2017-12-06T15:24:53.444Z,8.93
2017-12-06T15:27:24.097Z,8.13
2017-12-06T15:29:54.105Z,8.57
2017-12-06T15:32:24.277Z,8.10
2017-12-06T15:36:12.754Z,7.53
2017-12-06T15:38:44.162Z,7.57
2017-12-06T15:41:15.628Z,8.63
2017-12-06T15:43:46.735Z,8.57
2017-12-06T15:46:27.768Z,7.55
2017-12-06T15:48:58.758Z,8.98
2017-12-06T15:51:34.615Z,8.90
2017-12-06T15:54:07.332Z,8.02
2017-12-06T15:56:37.443Z,8.63
2017-12-06T15:59:10.097Z,9.23
2017-12-06T16:01:42.778Z,8.63
2017-12-06T16:04:13.010Z,9.48
2017-12-06T16:06:43.413Z,8.90
2017-12-06T16:09:13.237Z,9.98
2017-12-06T16:11:45.971Z,8.52
2017-12-06T16:14:15.506Z,8.40
2017-12-06T16:16:46.414Z,9.25
2017-12-06T16:19:16.947Z,8.15
2017-12-06T16:21:48.601Z,9.68
2017-12-06T16:24:21.499Z,8.35
2017-12-06T16:26:52.214Z,8.38
2017-12-06T16:29:27.362Z,8.75
2017-12-06T16:31:59.921Z,8.20
2017-12-06T16:34:30.795Z,9.20
2017-12-06T16:37:43.117Z,8.25
2017-12-06T16:40:16.330Z,7.75
2017-12-06T16:42:46.148Z,11.20
2017-12-06T16:45:22.842Z,8.10
2017-12-06T16:47:53.638Z,8.52
2017-12-06T16:50:25.549Z,8.02
2017-12-06T16:52:55.588Z,8.43
2017-12-06T16:55:32.835Z,8.27
2017-12-06T16:58:06.440Z,9.98
2017-12-06T17:00:44.014Z,10.13
2017-12-06T17:03:17.734Z,7.15
2017-12-06T17:05:46.973Z,7.62
2017-12-06T17:08:19.288Z,7.82
2017-12-06T17:10:50.300Z,9.45
2017-12-06T17:13:20.543Z,8.48
2017-12-06T17:15:51.109Z,7.72
2017-12-06T17:18:22.746Z,8.55
2017-12-06T17:20:54.162Z,7.40
2017-12-06T17:23:23.630Z,6.87
2017-12-06T17:25:53.802Z,6.85
2017-12-06T17:28:31.735Z,6.85
2017-12-06T17:32:08.060Z,6.68
2017-12-06T17:34:37.449Z,6.30
2017-12-06T17:37:09.303Z,6.97
2017-12-06T17:39:38.440Z,9.07
2017-12-06T17:42:08.839Z,6.95
2017-12-06T17:44:39.370Z,6.70
2017-12-06T17:47:10.980Z,6.53
2017-12-06T17:49:41.382Z,7.75
2017-12-06T17:52:12.823Z,6.80
2017-12-06T17:54:43.248Z,6.20
2017-12-06T17:57:14.414Z,5.80
2017-12-06T17:59:44.209Z,7.25
2017-12-06T18:02:17.202Z,6.07
2017-12-06T18:04:46.314Z,6.20
2017-12-06T18:07:15.604Z,7.00
2017-12-06T18:09:45.285Z,6.50
2017-12-06T18:12:15.426Z,6.07
2017-12-06T18:14:45.756Z,6.20
2017-12-06T18:17:16.839Z,6.90
2017-12-06T18:19:46.784Z,6.25
2017-12-06T18:22:17.452Z,7.82
2017-12-06T18:24:46.666Z,6.32
2017-12-06T18:27:18.977Z,6.05
2017-12-06T18:29:50.517Z,6.85
2017-12-06T18:32:20.802Z,6.62
2017-12-06T18:34:51.900Z,6.07
2017-12-06T18:37:21.451Z,6.47
2017-12-06T18:39:50.935Z,6.15
2017-12-06T18:42:21.127Z,5.75
2017-12-06T18:44:50.372Z,6.80
2017-12-06T18:47:19.875Z,6.43
2017-12-06T18:49:48.978Z,6.45
2017-12-06T18:52:18.923Z,5.18
2017-12-06T18:54:49.978Z,6.97
2017-12-06T18:57:19.330Z,5.10
2017-12-06T18:59:48.532Z,6.80
2017-12-06T19:02:18.895Z,6.55
2017-12-06T19:04:48.905Z,5.60
2017-12-06T19:07:21.703Z,5.18
2017-12-06T19:09:51.584Z,4.82
2017-12-06T19:12:20.802Z,5.15
2017-12-06T19:14:50.904Z,6.10
2017-12-06T19:17:24.020Z,5.20
2017-12-06T19:19:53.895Z,8.95
2017-12-06T19:22:25.357Z,4.68
2017-12-06T19:24:55.384Z,5.10
2017-12-06T19:27:26.513Z,4.07
2017-12-06T19:29:56.741Z,4.35
2017-12-06T19:32:29.037Z,4.60
2017-12-06T19:34:59.093Z,6.40
2017-12-06T19:37:28.301Z,4.93
2017-12-06T19:39:58.214Z,4.25
2017-12-06T19:42:28.035Z,5.10
2017-12-06T19:44:57.559Z,4.87
2017-12-06T19:47:30.713Z,4.40
2017-12-06T19:50:00.943Z,4.87
2017-12-06T19:52:33.570Z,5.20
2017-12-06T19:55:14.019Z,4.85
2017-12-06T19:57:44.258Z,4.95
2017-12-06T20:00:26.611Z,6.53
2017-12-06T20:02:58.996Z,4.20
2017-12-06T20:05:29.482Z,3.92
2017-12-06T20:07:59.661Z,4.95
2017-12-06T20:10:31.598Z,4.85
2017-12-06T20:13:08.042Z,4.07
2017-12-06T20:15:38.202Z,4.30
2017-12-06T20:18:12.418Z,4.87
2017-12-06T20:20:43.562Z,4.90
2017-12-06T20:23:13.914Z,5.30
2017-12-06T20:25:45.723Z,3.92
2017-12-06T20:28:15.872Z,4.15
2017-12-06T20:30:46.143Z,4.35
2017-12-06T20:33:15.324Z,4.00
2017-12-06T20:35:44.681Z,5.12
2017-12-06T20:38:14.734Z,4.50
2017-12-06T20:40:45.868Z,5.53
2017-12-06T20:43:16.873Z,5.20
2017-12-06T20:45:47.866Z,5.00
2017-12-06T20:48:17.445Z,5.05
2017-12-06T20:50:48.020Z,3.85
2017-12-06T20:53:19.393Z,4.50
2017-12-06T20:55:50.782Z,4.20
2017-12-06T20:58:21.106Z,4.15
2017-12-06T21:00:55.033Z,4.35
2017-12-06T21:03:26.016Z,3.80
2017-12-06T21:05:55.304Z,4.82
2017-12-06T21:08:25.286Z,3.75
2017-12-06T21:10:54.615Z,3.85
2017-12-06T21:13:23.954Z,4.28
2017-12-06T21:15:54.302Z,4.75
2017-12-06T21:18:24.532Z,4.28
2017-12-06T21:20:54.837Z,6.45
2017-12-06T21:23:26.133Z,5.40
2017-12-06T21:25:56.103Z,6.57
2017-12-06T21:28:26.081Z,16.62
2017-12-06T21:30:55.629Z,9.98
2017-12-06T21:33:26.338Z,10.93
2017-12-06T21:35:56.283Z,12.23
2017-12-06T21:38:25.446Z,18.50
2017-12-06T21:40:55.538Z,13.30
2017-12-06T21:43:24.701Z,15.13
2017-12-06T21:45:54.779Z,13.70
2017-12-06T21:48:23.984Z,13.85
2017-12-06T21:50:54.189Z,12.93
2017-12-06T21:53:23.358Z,13.00
2017-12-06T21:55:52.486Z,12.73
2017-12-06T21:58:21.582Z,11.73
2017-12-06T22:00:52.937Z,12.52
2017-12-06T22:03:22.815Z,15.52
2017-12-06T22:05:51.888Z,13.00
2017-12-06T22:08:20.892Z,15.68
2017-12-06T22:10:49.891Z,14.55
2017-12-06T22:13:19.023Z,14.63
2017-12-06T22:15:47.977Z,14.13
2017-12-06T22:18:17.002Z,17.62
2017-12-06T22:20:46.088Z,20.25
2017-12-06T22:23:15.743Z,16.02
2017-12-06T22:25:45.517Z,18.23
2017-12-06T22:28:14.535Z,19.08
2017-12-06T22:30:44.496Z,20.10
2017-12-06T22:33:13.407Z,21.80
2017-12-06T22:35:42.412Z,24.70
2017-12-06T22:38:12.276Z,21.65
2017-12-06T22:40:42.052Z,24.15
2017-12-06T22:43:11.018Z,24.05
2017-12-06T22:45:39.965Z,25.45
2017-12-06T22:48:09.671Z,24.85
2017-12-06T22:50:39.514Z,22.95
2017-12-06T22:53:08.463Z,22.83
2017-12-06T22:55:38.152Z,23.33
2017-12-06T22:58:07.210Z,29.73
2017-12-06T23:00:38.124Z,26.83
2017-12-06T23:03:07.300Z,28.55
2017-12-06T23:05:37.063Z,24.00
2017-12-06T23:08:06.093Z,26.45
2017-12-06T23:10:35.160Z,29.75
2017-12-06T23:13:04.091Z,22.30
2017-12-06T23:15:33.174Z,27.48
2017-12-06T23:18:02.728Z,23.98
2017-12-06T23:20:32.796Z,28.00
2017-12-06T23:23:01.718Z,23.15
2017-12-06T23:25:32.313Z,25.65
2017-12-06T23:28:01.334Z,26.27
2017-12-06T23:30:31.336Z,29.25
2017-12-06T23:33:01.144Z,24.35
2017-12-06T23:35:30.202Z,28.65
2017-12-06T23:37:59.770Z,26.95
2017-12-06T23:40:30.562Z,23.55
2017-12-06T23:42:59.544Z,24.27
2017-12-06T23:45:28.535Z,26.98
2017-12-06T23:47:57.456Z,26.85
2017-12-06T23:50:26.444Z,28.55
2017-12-06T23:52:56.505Z,25.62
2017-12-06T23:55:26.474Z,24.35
2017-12-06T23:57:55.684Z,25.10
